sensor_id;sensor_type;location;lat;lon;timestamp;temperature;humidity
11549;DHT22;61444;59.472;18.306;2023-05-10T00:01:29;8.90;85.10
11549;DHT22;61444;59.472;18.306;2023-05-10T00:03:37;8.90;85.10
11549;DHT22;61444;59.472;18.306;2023-05-10T00:05:47;8.90;85.30
11549;DHT22;61444;59.472;18.306;2023-05-10T00:07:56;8.90;85.80
11549;DHT22;61444;59.472;18.306;2023-05-10T00:10:07;8.90;85.80
11549;DHT22;61444;59.472;18.306;2023-05-10T00:12:15;8.90;86.00
11549;DHT22;61444;59.472;18.306;2023-05-10T00:14:24;8.90;86.60
11549;DHT22;61444;59.472;18.306;2023-05-10T00:16:33;8.90;86.70
11549;DHT22;61444;59.472;18.306;2023-05-10T00:18:41;8.80;86.70
11549;DHT22;61444;59.472;18.306;2023-05-10T00:20:50;8.80;86.80
11549;DHT22;61444;59.472;18.306;2023-05-10T00:22:59;8.80;87.10
11549;DHT22;61444;59.472;18.306;2023-05-10T00:25:11;8.70;87.60
11549;DHT22;61444;59.472;18.306;2023-05-10T00:27:20;8.70;88.00
11549;DHT22;61444;59.472;18.306;2023-05-10T00:29:29;8.60;88.40
11549;DHT22;61444;59.472;18.306;2023-05-10T00:31:38;8.50;89.10
11549;DHT22;61444;59.472;18.306;2023-05-10T00:33:46;8.50;89.50
11549;DHT22;61444;59.472;18.306;2023-05-10T00:35:55;8.50;89.70
11549;DHT22;61444;59.472;18.306;2023-05-10T00:38:04;8.50;90.00
11549;DHT22;61444;59.472;18.306;2023-05-10T00:40:15;8.50;90.00
11549;DHT22;61444;59.472;18.306;2023-05-10T00:42:23;8.40;90.30
11549;DHT22;61444;59.472;18.306;2023-05-10T00:44:32;8.30;90.40
11549;DHT22;61444;59.472;18.306;2023-05-10T00:46:41;8.30;90.80
11549;DHT22;61444;59.472;18.306;2023-05-10T00:48:50;8.30;90.70
11549;DHT22;61444;59.472;18.306;2023-05-10T00:50:59;8.30;90.80
11549;DHT22;61444;59.472;18.306;2023-05-10T00:53:08;8.20;92.00
11549;DHT22;61444;59.472;18.306;2023-05-10T00:55:20;8.20;94.60
11549;DHT22;61444;59.472;18.306;2023-05-10T00:57:29;8.20;95.00
11549;DHT22;61444;59.472;18.306;2023-05-10T00:59:37;8.20;95.20
11549;DHT22;61444;59.472;18.306;2023-05-10T01:01:46;8.20;95.30
11549;DHT22;61444;59.472;18.306;2023-05-10T01:03:55;8.10;95.90
11549;DHT22;61444;59.472;18.306;2023-05-10T01:06:05;8.10;95.90
11549;DHT22;61444;59.472;18.306;2023-05-10T01:08:14;8.10;96.00
11549;DHT22;61444;59.472;18.306;2023-05-10T01:10:24;8.00;96.30
11549;DHT22;61444;59.472;18.306;2023-05-10T01:12:33;8.00;96.70
11549;DHT22;61444;59.472;18.306;2023-05-10T01:14:43;7.90;96.90
11549;DHT22;61444;59.472;18.306;2023-05-10T01:16:52;7.90;97.10
11549;DHT22;61444;59.472;18.306;2023-05-10T01:19:01;7.90;97.50
11549;DHT22;61444;59.472;18.306;2023-05-10T01:21:17;7.90;97.30
11549;DHT22;61444;59.472;18.306;2023-05-10T01:23:46;7.90;97.80
11549;DHT22;61444;59.472;18.306;2023-05-10T01:26:18;7.90;97.80
11549;DHT22;61444;59.472;18.306;2023-05-10T01:28:44;7.80;98.10
11549;DHT22;61444;59.472;18.306;2023-05-10T01:31:28;7.70;98.60
11549;DHT22;61444;59.472;18.306;2023-05-10T01:33:43;7.60;99.20
11549;DHT22;61444;59.472;18.306;2023-05-10T01:36:12;7.60;99.40
11549;DHT22;61444;59.472;18.306;2023-05-10T01:38:28;7.60;99.90
11549;DHT22;61444;59.472;18.306;2023-05-10T01:40:44;7.60;99.90
11549;DHT22;61444;59.472;18.306;2023-05-10T01:43:00;7.60;99.90
11549;DHT22;61444;59.472;18.306;2023-05-10T01:45:16;7.50;99.90
11549;DHT22;61444;59.472;18.306;2023-05-10T01:47:32;7.40;99.90
11549;DHT22;61444;59.472;18.306;2023-05-10T01:49:49;7.40;99.90
11549;DHT22;61444;59.472;18.306;2023-05-10T01:52:03;7.30;99.90
11549;DHT22;61444;59.472;18.306;2023-05-10T01:54:13;7.40;99.90
11549;DHT22;61444;59.472;18.306;2023-05-10T01:56:25;7.30;99.90
11549;DHT22;61444;59.472;18.306;2023-05-10T01:58:36;7.20;99.90
11549;DHT22;61444;59.472;18.306;2023-05-10T02:00:48;7.20;99.90
11549;DHT22;61444;59.472;18.306;2023-05-10T02:02:58;7.30;99.90
11549;DHT22;61444;59.472;18.306;2023-05-10T02:05:12;7.30;99.90
11549;DHT22;61444;59.472;18.306;2023-05-10T02:07:22;7.20;99.90
11549;DHT22;61444;59.472;18.306;2023-05-10T02:09:32;7.20;99.90
11549;DHT22;61444;59.472;18.306;2023-05-10T02:11:42;7.20;99.90
11549;DHT22;61444;59.472;18.306;2023-05-10T02:13:53;7.20;99.90
11549;DHT22;61444;59.472;18.306;2023-05-10T02:16:03;7.20;99.90
11549;DHT22;61444;59.472;18.306;2023-05-10T02:18:14;7.20;99.90
11549;DHT22;61444;59.472;18.306;2023-05-10T02:20:25;7.20;99.90
11549;DHT22;61444;59.472;18.306;2023-05-10T02:22:35;7.10;99.90
11549;DHT22;61444;59.472;18.306;2023-05-10T02:24:46;7.10;99.90
11549;DHT22;61444;59.472;18.306;2023-05-10T02:26:56;7.10;99.90
11549;DHT22;61444;59.472;18.306;2023-05-10T02:29:06;7.00;99.90
11549;DHT22;61444;59.472;18.306;2023-05-10T02:31:17;6.90;99.90
11549;DHT22;61444;59.472;18.306;2023-05-10T02:33:26;6.90;99.90
11549;DHT22;61444;59.472;18.306;2023-05-10T02:35:38;7.00;99.90
11549;DHT22;61444;59.472;18.306;2023-05-10T02:37:48;6.90;99.90
11549;DHT22;61444;59.472;18.306;2023-05-10T02:39:58;6.90;99.90
11549;DHT22;61444;59.472;18.306;2023-05-10T02:42:08;6.70;99.90
11549;DHT22;61444;59.472;18.306;2023-05-10T02:44:19;6.90;99.90
11549;DHT22;61444;59.472;18.306;2023-05-10T02:46:28;6.70;99.90
11549;DHT22;61444;59.472;18.306;2023-05-10T02:48:36;6.70;99.90
11549;DHT22;61444;59.472;18.306;2023-05-10T02:50:47;6.70;99.90
11549;DHT22;61444;59.472;18.306;2023-05-10T02:53:00;6.70;99.90
11549;DHT22;61444;59.472;18.306;2023-05-10T02:55:12;6.60;99.90
11549;DHT22;61444;59.472;18.306;2023-05-10T02:57:30;6.60;99.90
11549;DHT22;61444;59.472;18.306;2023-05-10T02:59:40;6.60;99.90
11549;DHT22;61444;59.472;18.306;2023-05-10T03:01:49;6.50;99.90
11549;DHT22;61444;59.472;18.306;2023-05-10T03:03:58;6.60;99.90
11549;DHT22;61444;59.472;18.306;2023-05-10T03:06:08;6.60;99.90
11549;DHT22;61444;59.472;18.306;2023-05-10T03:08:17;6.60;99.90
11549;DHT22;61444;59.472;18.306;2023-05-10T03:10:28;6.70;99.90
11549;DHT22;61444;59.472;18.306;2023-05-10T03:12:52;6.70;99.90
11549;DHT22;61444;59.472;18.306;2023-05-10T03:15:11;6.70;99.90
11549;DHT22;61444;59.472;18.306;2023-05-10T03:17:25;6.60;99.90
11549;DHT22;61444;59.472;18.306;2023-05-10T03:19:43;6.50;99.90
11549;DHT22;61444;59.472;18.306;2023-05-10T03:21:59;6.50;99.90
11549;DHT22;61444;59.472;18.306;2023-05-10T03:24:12;6.70;99.90
11549;DHT22;61444;59.472;18.306;2023-05-10T03:26:26;6.70;99.90
11549;DHT22;61444;59.472;18.306;2023-05-10T03:28:35;6.80;99.90
11549;DHT22;61444;59.472;18.306;2023-05-10T03:30:45;6.90;99.90
11549;DHT22;61444;59.472;18.306;2023-05-10T03:32:54;7.00;99.90
11549;DHT22;61444;59.472;18.306;2023-05-10T03:35:07;7.00;99.90
11549;DHT22;61444;59.472;18.306;2023-05-10T03:37:17;7.00;99.90
11549;DHT22;61444;59.472;18.306;2023-05-10T03:39:25;7.00;99.90
11549;DHT22;61444;59.472;18.306;2023-05-10T03:41:34;6.90;99.90
11549;DHT22;61444;59.472;18.306;2023-05-10T03:43:42;7.00;99.90
11549;DHT22;61444;59.472;18.306;2023-05-10T03:45:51;7.00;99.90
11549;DHT22;61444;59.472;18.306;2023-05-10T03:48:00;7.00;99.90
11549;DHT22;61444;59.472;18.306;2023-05-10T03:50:09;7.10;99.90
11549;DHT22;61444;59.472;18.306;2023-05-10T03:52:19;7.30;99.90
11549;DHT22;61444;59.472;18.306;2023-05-10T03:54:29;7.40;99.90
11549;DHT22;61444;59.472;18.306;2023-05-10T03:56:37;7.40;99.90
11549;DHT22;61444;59.472;18.306;2023-05-10T03:58:46;7.50;99.90
11549;DHT22;61444;59.472;18.306;2023-05-10T04:00:55;7.50;99.90
11549;DHT22;61444;59.472;18.306;2023-05-10T04:03:03;7.60;99.90
11549;DHT22;61444;59.472;18.306;2023-05-10T04:05:12;7.60;99.90
11549;DHT22;61444;59.472;18.306;2023-05-10T04:07:22;7.60;99.90
11549;DHT22;61444;59.472;18.306;2023-05-10T04:09:31;7.70;99.90
11549;DHT22;61444;59.472;18.306;2023-05-10T04:11:40;7.80;99.90
11549;DHT22;61444;59.472;18.306;2023-05-10T04:13:48;7.90;99.90
11549;DHT22;61444;59.472;18.306;2023-05-10T04:15:57;8.00;99.90
11549;DHT22;61444;59.472;18.306;2023-05-10T04:18:05;8.00;99.90
11549;DHT22;61444;59.472;18.306;2023-05-10T04:20:15;8.00;99.90
11549;DHT22;61444;59.472;18.306;2023-05-10T04:22:25;8.10;99.90
11549;DHT22;61444;59.472;18.306;2023-05-10T04:24:34;8.20;99.90
11549;DHT22;61444;59.472;18.306;2023-05-10T04:26:43;8.30;99.90
11549;DHT22;61444;59.472;18.306;2023-05-10T04:28:52;8.30;99.90
11549;DHT22;61444;59.472;18.306;2023-05-10T04:31:01;8.40;99.90
11549;DHT22;61444;59.472;18.306;2023-05-10T04:33:10;8.50;99.90
11549;DHT22;61444;59.472;18.306;2023-05-10T04:35:19;8.60;99.90
11549;DHT22;61444;59.472;18.306;2023-05-10T04:37:29;8.60;99.90
11549;DHT22;61444;59.472;18.306;2023-05-10T04:39:38;8.60;99.90
11549;DHT22;61444;59.472;18.306;2023-05-10T04:41:48;8.70;99.90
11549;DHT22;61444;59.472;18.306;2023-05-10T04:43:57;8.80;99.90
11549;DHT22;61444;59.472;18.306;2023-05-10T04:46:05;8.90;99.90
11549;DHT22;61444;59.472;18.306;2023-05-10T04:48:14;8.90;99.90
11549;DHT22;61444;59.472;18.306;2023-05-10T04:50:23;9.10;99.90
11549;DHT22;61444;59.472;18.306;2023-05-10T04:52:33;9.20;99.90
11549;DHT22;61444;59.472;18.306;2023-05-10T04:54:43;9.20;99.90
11549;DHT22;61444;59.472;18.306;2023-05-10T04:56:51;9.30;99.90
11549;DHT22;61444;59.472;18.306;2023-05-10T04:59:02;9.40;99.90
11549;DHT22;61444;59.472;18.306;2023-05-10T05:01:10;9.40;99.90
11549;DHT22;61444;59.472;18.306;2023-05-10T05:03:19;9.60;99.90
11549;DHT22;61444;59.472;18.306;2023-05-10T05:05:28;9.70;99.90
11549;DHT22;61444;59.472;18.306;2023-05-10T05:07:38;9.70;99.90
11549;DHT22;61444;59.472;18.306;2023-05-10T05:09:47;9.80;99.90
11549;DHT22;61444;59.472;18.306;2023-05-10T05:11:56;9.80;99.90
11549;DHT22;61444;59.472;18.306;2023-05-10T05:14:04;9.90;99.90
11549;DHT22;61444;59.472;18.306;2023-05-10T05:16:12;10.00;99.90
11549;DHT22;61444;59.472;18.306;2023-05-10T05:18:22;10.10;99.90
11549;DHT22;61444;59.472;18.306;2023-05-10T05:20:32;10.10;99.90
11549;DHT22;61444;59.472;18.306;2023-05-10T05:22:42;10.20;99.90
11549;DHT22;61444;59.472;18.306;2023-05-10T05:24:51;10.30;99.90
11549;DHT22;61444;59.472;18.306;2023-05-10T05:26:59;10.40;99.90
11549;DHT22;61444;59.472;18.306;2023-05-10T05:29:08;10.40;99.90
11549;DHT22;61444;59.472;18.306;2023-05-10T05:31:17;10.50;99.90
11549;DHT22;61444;59.472;18.306;2023-05-10T05:33:26;10.60;99.90
11549;DHT22;61444;59.472;18.306;2023-05-10T05:35:34;10.80;99.90
11549;DHT22;61444;59.472;18.306;2023-05-10T05:37:45;10.80;99.60
11549;DHT22;61444;59.472;18.306;2023-05-10T05:39:53;10.90;99.90
11549;DHT22;61444;59.472;18.306;2023-05-10T05:42:02;11.10;99.90
11549;DHT22;61444;59.472;18.306;2023-05-10T05:44:11;11.00;98.70
11549;DHT22;61444;59.472;18.306;2023-05-10T05:46:20;11.10;98.20
11549;DHT22;61444;59.472;18.306;2023-05-10T05:48:30;11.10;98.20
11549;DHT22;61444;59.472;18.306;2023-05-10T05:50:38;11.10;97.60
11549;DHT22;61444;59.472;18.306;2023-05-10T05:52:48;11.10;97.80
11549;DHT22;61444;59.472;18.306;2023-05-10T05:54:58;11.20;98.20
11549;DHT22;61444;59.472;18.306;2023-05-10T05:57:07;11.30;97.60
11549;DHT22;61444;59.472;18.306;2023-05-10T05:59:16;11.30;97.20
11549;DHT22;61444;59.472;18.306;2023-05-10T06:01:25;11.40;98.20
11549;DHT22;61444;59.472;18.306;2023-05-10T06:03:33;11.40;97.40
11549;DHT22;61444;59.472;18.306;2023-05-10T06:05:42;11.50;97.20
11549;DHT22;61444;59.472;18.306;2023-05-10T06:07:52;11.50;97.30
11549;DHT22;61444;59.472;18.306;2023-05-10T06:10:01;11.50;97.60
11549;DHT22;61444;59.472;18.306;2023-05-10T06:12:10;11.70;97.20
11549;DHT22;61444;59.472;18.306;2023-05-10T06:14:20;11.70;97.50
11549;DHT22;61444;59.472;18.306;2023-05-10T06:16:29;11.60;97.40
11549;DHT22;61444;59.472;18.306;2023-05-10T06:18:38;11.80;97.80
11549;DHT22;61444;59.472;18.306;2023-05-10T06:20:46;11.70;96.60
11549;DHT22;61444;59.472;18.306;2023-05-10T06:22:56;11.70;97.10
11549;DHT22;61444;59.472;18.306;2023-05-10T06:25:06;11.90;97.80
11549;DHT22;61444;59.472;18.306;2023-05-10T06:27:15;12.00;97.20
11549;DHT22;61444;59.472;18.306;2023-05-10T06:29:24;12.20;97.50
11549;DHT22;61444;59.472;18.306;2023-05-10T06:31:33;12.30;97.90
11549;DHT22;61444;59.472;18.306;2023-05-10T06:33:42;12.20;97.20
11549;DHT22;61444;59.472;18.306;2023-05-10T06:35:50;12.30;97.20
11549;DHT22;61444;59.472;18.306;2023-05-10T06:38:01;12.30;96.90
11549;DHT22;61444;59.472;18.306;2023-05-10T06:40:10;12.30;96.90
11549;DHT22;61444;59.472;18.306;2023-05-10T06:42:19;12.40;97.80
11549;DHT22;61444;59.472;18.306;2023-05-10T06:44:27;12.50;97.90
11549;DHT22;61444;59.472;18.306;2023-05-10T06:48:46;12.70;99.90
11549;DHT22;61444;59.472;18.306;2023-05-10T06:50:55;12.70;99.90
11549;DHT22;61444;59.472;18.306;2023-05-10T06:55:17;13.10;90.00
11549;DHT22;61444;59.472;18.306;2023-05-10T06:57:25;13.10;91.70
11549;DHT22;61444;59.472;18.306;2023-05-10T06:59:37;13.20;91.00
11549;DHT22;61444;59.472;18.306;2023-05-10T07:01:46;13.20;91.10
11549;DHT22;61444;59.472;18.306;2023-05-10T07:03:55;13.30;90.30
11549;DHT22;61444;59.472;18.306;2023-05-10T07:08:26;13.50;90.30
11549;DHT22;61444;59.472;18.306;2023-05-10T07:10:34;13.60;92.10
11549;DHT22;61444;59.472;18.306;2023-05-10T07:12:43;13.70;93.70
11549;DHT22;61444;59.472;18.306;2023-05-10T07:14:52;13.70;95.50
11549;DHT22;61444;59.472;18.306;2023-05-10T07:17:00;13.80;94.70
11549;DHT22;61444;59.472;18.306;2023-05-10T07:19:09;13.90;91.80
11549;DHT22;61444;59.472;18.306;2023-05-10T07:21:18;13.80;90.40
11549;DHT22;61444;59.472;18.306;2023-05-10T07:23:29;14.00;91.00
11549;DHT22;61444;59.472;18.306;2023-05-10T07:25:37;14.10;91.00
11549;DHT22;61444;59.472;18.306;2023-05-10T07:27:46;14.20;90.40
11549;DHT22;61444;59.472;18.306;2023-05-10T07:29:55;14.30;88.20
11549;DHT22;61444;59.472;18.306;2023-05-10T07:32:04;14.50;88.60
11549;DHT22;61444;59.472;18.306;2023-05-10T07:34:13;14.60;88.90
11549;DHT22;61444;59.472;18.306;2023-05-10T07:36:21;14.50;86.60
11549;DHT22;61444;59.472;18.306;2023-05-10T07:38:31;14.80;88.30
11549;DHT22;61444;59.472;18.306;2023-05-10T07:40:41;14.80;85.50
11549;DHT22;61444;59.472;18.306;2023-05-10T07:42:49;14.70;85.90
11549;DHT22;61444;59.472;18.306;2023-05-10T07:44:57;14.80;84.60
11549;DHT22;61444;59.472;18.306;2023-05-10T07:47:06;15.00;84.50
11549;DHT22;61444;59.472;18.306;2023-05-10T07:49:15;15.00;83.00
11549;DHT22;61444;59.472;18.306;2023-05-10T07:51:24;15.10;83.10
11549;DHT22;61444;59.472;18.306;2023-05-10T07:53:35;15.10;82.40
11549;DHT22;61444;59.472;18.306;2023-05-10T07:55:43;15.10;82.60
11549;DHT22;61444;59.472;18.306;2023-05-10T07:57:51;15.10;82.30
11549;DHT22;61444;59.472;18.306;2023-05-10T08:00:00;15.30;82.40
11549;DHT22;61444;59.472;18.306;2023-05-10T08:02:09;15.50;82.10
11549;DHT22;61444;59.472;18.306;2023-05-10T08:04:17;15.60;81.80
11549;DHT22;61444;59.472;18.306;2023-05-10T08:06:26;15.70;79.80
11549;DHT22;61444;59.472;18.306;2023-05-10T08:08:39;15.60;80.90
11549;DHT22;61444;59.472;18.306;2023-05-10T08:10:48;15.80;79.60
11549;DHT22;61444;59.472;18.306;2023-05-10T08:12:57;15.90;80.20
11549;DHT22;61444;59.472;18.306;2023-05-10T08:15:06;16.00;79.00
11549;DHT22;61444;59.472;18.306;2023-05-10T08:17:16;15.90;74.20
11549;DHT22;61444;59.472;18.306;2023-05-10T08:19:26;16.10;74.00
11549;DHT22;61444;59.472;18.306;2023-05-10T08:21:35;16.10;71.70
11549;DHT22;61444;59.472;18.306;2023-05-10T08:23:45;16.30;70.40
11549;DHT22;61444;59.472;18.306;2023-05-10T08:25:54;16.30;70.10
11549;DHT22;61444;59.472;18.306;2023-05-10T08:28:02;16.40;71.30
11549;DHT22;61444;59.472;18.306;2023-05-10T08:30:12;16.30;69.10
11549;DHT22;61444;59.472;18.306;2023-05-10T08:32:20;16.60;70.20
11549;DHT22;61444;59.472;18.306;2023-05-10T08:34:29;16.80;69.90
11549;DHT22;61444;59.472;18.306;2023-05-10T08:36:38;17.10;68.20
11549;DHT22;61444;59.472;18.306;2023-05-10T08:38:50;17.10;66.20
11549;DHT22;61444;59.472;18.306;2023-05-10T08:40:59;17.00;65.30
11549;DHT22;61444;59.472;18.306;2023-05-10T08:43:11;16.90;66.00
11549;DHT22;61444;59.472;18.306;2023-05-10T08:45:23;16.90;65.00
11549;DHT22;61444;59.472;18.306;2023-05-10T08:47:33;17.10;67.30
11549;DHT22;61444;59.472;18.306;2023-05-10T08:49:43;17.30;66.10
11549;DHT22;61444;59.472;18.306;2023-05-10T08:51:55;17.30;64.40
11549;DHT22;61444;59.472;18.306;2023-05-10T08:54:06;17.50;68.30
11549;DHT22;61444;59.472;18.306;2023-05-10T08:56:15;17.70;64.70
11549;DHT22;61444;59.472;18.306;2023-05-10T08:58:25;17.70;64.10
11549;DHT22;61444;59.472;18.306;2023-05-10T09:00:34;17.80;59.80
11549;DHT22;61444;59.472;18.306;2023-05-10T09:02:44;17.80;59.40
11549;DHT22;61444;59.472;18.306;2023-05-10T09:04:54;17.90;60.00
11549;DHT22;61444;59.472;18.306;2023-05-10T09:07:03;17.90;58.70
11549;DHT22;61444;59.472;18.306;2023-05-10T09:09:14;18.10;59.50
11549;DHT22;61444;59.472;18.306;2023-05-10T09:11:24;18.00;57.90
11549;DHT22;61444;59.472;18.306;2023-05-10T09:13:32;18.10;58.30
11549;DHT22;61444;59.472;18.306;2023-05-10T09:15:43;18.20;57.60
11549;DHT22;61444;59.472;18.306;2023-05-10T09:17:51;18.50;56.90
11549;DHT22;61444;59.472;18.306;2023-05-10T09:20:02;18.50;56.10
11549;DHT22;61444;59.472;18.306;2023-05-10T09:22:10;18.50;56.00
11549;DHT22;61444;59.472;18.306;2023-05-10T09:24:25;18.30;55.50
11549;DHT22;61444;59.472;18.306;2023-05-10T09:26:34;18.30;55.90
11549;DHT22;61444;59.472;18.306;2023-05-10T09:28:51;18.50;56.90
11549;DHT22;61444;59.472;18.306;2023-05-10T09:31:00;18.60;56.70
11549;DHT22;61444;59.472;18.306;2023-05-10T09:33:09;18.80;56.30
11549;DHT22;61444;59.472;18.306;2023-05-10T09:35:19;18.60;55.00
11549;DHT22;61444;59.472;18.306;2023-05-10T09:37:29;18.70;55.10
11549;DHT22;61444;59.472;18.306;2023-05-10T09:39:40;18.70;57.60
11549;DHT22;61444;59.472;18.306;2023-05-10T09:41:49;18.80;54.50
11549;DHT22;61444;59.472;18.306;2023-05-10T09:43:57;19.00;54.90
11549;DHT22;61444;59.472;18.306;2023-05-10T09:46:08;18.90;52.60
11549;DHT22;61444;59.472;18.306;2023-05-10T09:48:18;18.80;52.90
11549;DHT22;61444;59.472;18.306;2023-05-10T09:50:27;19.10;54.50
11549;DHT22;61444;59.472;18.306;2023-05-10T09:52:47;19.30;53.50
11549;DHT22;61444;59.472;18.306;2023-05-10T09:54:57;19.20;53.10
11549;DHT22;61444;59.472;18.306;2023-05-10T09:57:18;19.30;54.00
11549;DHT22;61444;59.472;18.306;2023-05-10T09:59:28;19.30;52.50
11549;DHT22;61444;59.472;18.306;2023-05-10T10:01:37;19.10;51.80
11549;DHT22;61444;59.472;18.306;2023-05-10T10:03:46;19.10;51.50
11549;DHT22;61444;59.472;18.306;2023-05-10T10:05:55;19.20;52.80
11549;DHT22;61444;59.472;18.306;2023-05-10T10:08:05;19.30;51.50
11549;DHT22;61444;59.472;18.306;2023-05-10T10:10:15;19.20;52.00
11549;DHT22;61444;59.472;18.306;2023-05-10T10:12:25;19.40;52.10
11549;DHT22;61444;59.472;18.306;2023-05-10T10:14:34;19.20;50.20
11549;DHT22;61444;59.472;18.306;2023-05-10T10:16:43;19.10;51.10
11549;DHT22;61444;59.472;18.306;2023-05-10T10:19:11;19.20;50.90
11549;DHT22;61444;59.472;18.306;2023-05-10T10:21:20;19.30;51.30
11549;DHT22;61444;59.472;18.306;2023-05-10T10:23:29;19.40;50.90
11549;DHT22;61444;59.472;18.306;2023-05-10T10:25:39;19.40;52.10
11549;DHT22;61444;59.472;18.306;2023-05-10T10:27:55;19.20;50.40
11549;DHT22;61444;59.472;18.306;2023-05-10T10:30:14;19.00;50.40
11549;DHT22;61444;59.472;18.306;2023-05-10T10:32:30;19.00;50.00
11549;DHT22;61444;59.472;18.306;2023-05-10T10:34:44;19.00;50.00
11549;DHT22;61444;59.472;18.306;2023-05-10T10:36:54;19.10;49.90
11549;DHT22;61444;59.472;18.306;2023-05-10T10:39:09;19.10;49.80
11549;DHT22;61444;59.472;18.306;2023-05-10T10:41:30;19.20;50.70
11549;DHT22;61444;59.472;18.306;2023-05-10T10:43:39;19.30;51.10
11549;DHT22;61444;59.472;18.306;2023-05-10T10:46:09;19.20;50.90
11549;DHT22;61444;59.472;18.306;2023-05-10T10:48:22;19.10;50.80
11549;DHT22;61444;59.472;18.306;2023-05-10T10:50:31;19.20;50.10
11549;DHT22;61444;59.472;18.306;2023-05-10T10:52:51;18.80;51.40
11549;DHT22;61444;59.472;18.306;2023-05-10T10:55:02;19.20;50.90
11549;DHT22;61444;59.472;18.306;2023-05-10T10:57:12;19.30;52.40
11549;DHT22;61444;59.472;18.306;2023-05-10T10:59:27;19.50;52.40
11549;DHT22;61444;59.472;18.306;2023-05-10T11:01:35;19.40;51.60
11549;DHT22;61444;59.472;18.306;2023-05-10T11:04:18;19.60;51.20
11549;DHT22;61444;59.472;18.306;2023-05-10T11:06:30;19.60;49.90
11549;DHT22;61444;59.472;18.306;2023-05-10T11:08:43;19.70;50.80
11549;DHT22;61444;59.472;18.306;2023-05-10T11:11:02;19.60;50.20
11549;DHT22;61444;59.472;18.306;2023-05-10T11:13:12;19.40;49.90
11549;DHT22;61444;59.472;18.306;2023-05-10T11:15:28;19.30;51.20
11549;DHT22;61444;59.472;18.306;2023-05-10T11:17:38;19.50;50.40
11549;DHT22;61444;59.472;18.306;2023-05-10T11:20:07;19.20;49.90
11549;DHT22;61444;59.472;18.306;2023-05-10T11:22:16;19.20;50.30
11549;DHT22;61444;59.472;18.306;2023-05-10T11:24:27;19.30;50.50
11549;DHT22;61444;59.472;18.306;2023-05-10T11:26:36;19.20;50.60
11549;DHT22;61444;59.472;18.306;2023-05-10T11:28:48;19.30;52.20
11549;DHT22;61444;59.472;18.306;2023-05-10T11:30:57;19.20;50.10
11549;DHT22;61444;59.472;18.306;2023-05-10T11:33:06;19.10;49.50
11549;DHT22;61444;59.472;18.306;2023-05-10T11:35:15;18.90;49.30
11549;DHT22;61444;59.472;18.306;2023-05-10T11:37:24;19.00;49.90
11549;DHT22;61444;59.472;18.306;2023-05-10T11:39:39;18.90;49.50
11549;DHT22;61444;59.472;18.306;2023-05-10T11:41:54;18.70;49.20
11549;DHT22;61444;59.472;18.306;2023-05-10T11:44:05;18.40;48.80
11549;DHT22;61444;59.472;18.306;2023-05-10T11:46:14;18.50;48.90
11549;DHT22;61444;59.472;18.306;2023-05-10T11:48:22;18.50;49.80
11549;DHT22;61444;59.472;18.306;2023-05-10T11:50:31;18.50;49.40
11549;DHT22;61444;59.472;18.306;2023-05-10T11:52:39;18.70;50.30
11549;DHT22;61444;59.472;18.306;2023-05-10T11:54:51;18.70;50.00
11549;DHT22;61444;59.472;18.306;2023-05-10T11:57:00;18.80;49.70
11549;DHT22;61444;59.472;18.306;2023-05-10T11:59:13;18.70;49.30
11549;DHT22;61444;59.472;18.306;2023-05-10T12:01:23;18.70;49.20
11549;DHT22;61444;59.472;18.306;2023-05-10T12:03:31;18.90;50.40
11549;DHT22;61444;59.472;18.306;2023-05-10T12:05:41;18.90;51.00
11549;DHT22;61444;59.472;18.306;2023-05-10T12:07:50;19.00;50.80
11549;DHT22;61444;59.472;18.306;2023-05-10T12:10:06;19.00;49.90
11549;DHT22;61444;59.472;18.306;2023-05-10T12:12:16;18.90;49.20
11549;DHT22;61444;59.472;18.306;2023-05-10T12:14:26;18.90;48.00
11549;DHT22;61444;59.472;18.306;2023-05-10T12:16:36;18.70;47.30
11549;DHT22;61444;59.472;18.306;2023-05-10T12:18:44;18.50;47.10
11549;DHT22;61444;59.472;18.306;2023-05-10T12:20:53;18.50;47.60
11549;DHT22;61444;59.472;18.306;2023-05-10T12:23:02;18.40;48.10
11549;DHT22;61444;59.472;18.306;2023-05-10T12:25:12;18.50;48.60
11549;DHT22;61444;59.472;18.306;2023-05-10T12:27:21;18.60;48.90
11549;DHT22;61444;59.472;18.306;2023-05-10T12:29:31;18.70;48.50
11549;DHT22;61444;59.472;18.306;2023-05-10T12:31:52;18.80;48.30
11549;DHT22;61444;59.472;18.306;2023-05-10T12:34:01;18.90;48.40
11549;DHT22;61444;59.472;18.306;2023-05-10T12:36:11;18.90;49.10
11549;DHT22;61444;59.472;18.306;2023-05-10T12:38:27;18.80;48.80
11549;DHT22;61444;59.472;18.306;2023-05-10T12:40:37;18.60;48.90
11549;DHT22;61444;59.472;18.306;2023-05-10T12:42:46;18.50;48.50
11549;DHT22;61444;59.472;18.306;2023-05-10T12:44:57;18.40;48.60
11549;DHT22;61444;59.472;18.306;2023-05-10T12:47:06;18.40;48.40
11549;DHT22;61444;59.472;18.306;2023-05-10T12:49:15;18.40;49.00
11549;DHT22;61444;59.472;18.306;2023-05-10T12:51:25;18.40;49.50
11549;DHT22;61444;59.472;18.306;2023-05-10T12:53:34;18.40;49.20
11549;DHT22;61444;59.472;18.306;2023-05-10T12:55:43;18.80;50.30
11549;DHT22;61444;59.472;18.306;2023-05-10T12:57:52;18.80;49.00
11549;DHT22;61444;59.472;18.306;2023-05-10T13:00:03;18.60;48.80
11549;DHT22;61444;59.472;18.306;2023-05-10T13:02:12;18.70;49.50
11549;DHT22;61444;59.472;18.306;2023-05-10T13:04:21;18.70;49.20
11549;DHT22;61444;59.472;18.306;2023-05-10T13:06:30;18.70;49.80
11549;DHT22;61444;59.472;18.306;2023-05-10T13:08:39;18.60;49.20
11549;DHT22;61444;59.472;18.306;2023-05-10T13:10:48;18.60;49.30
11549;DHT22;61444;59.472;18.306;2023-05-10T13:12:57;18.60;49.60
11549;DHT22;61444;59.472;18.306;2023-05-10T13:15:09;18.50;49.40
11549;DHT22;61444;59.472;18.306;2023-05-10T13:17:18;18.70;51.00
11549;DHT22;61444;59.472;18.306;2023-05-10T13:19:26;18.60;49.50
11549;DHT22;61444;59.472;18.306;2023-05-10T13:21:35;18.50;49.50
11549;DHT22;61444;59.472;18.306;2023-05-10T13:23:44;18.50;49.40
11549;DHT22;61444;59.472;18.306;2023-05-10T13:25:53;18.50;49.60
11549;DHT22;61444;59.472;18.306;2023-05-10T13:28:02;19.10;49.90
11549;DHT22;61444;59.472;18.306;2023-05-10T13:30:12;18.90;49.40
11549;DHT22;61444;59.472;18.306;2023-05-10T13:32:21;18.50;49.40
11549;DHT22;61444;59.472;18.306;2023-05-10T13:34:30;18.30;50.50
11549;DHT22;61444;59.472;18.306;2023-05-10T13:36:39;18.50;49.40
11549;DHT22;61444;59.472;18.306;2023-05-10T13:38:47;18.60;49.80
11549;DHT22;61444;59.472;18.306;2023-05-10T13:40:55;18.60;50.20
11549;DHT22;61444;59.472;18.306;2023-05-10T13:43:04;19.10;50.80
